sensor_id;sensor_type;location;lat;lon;timestamp;P1;durP1;ratioP1;P2;durP2;ratioP2
42066;SDS011;27734;47.028;28.820;2024-02-21T00:00:13;28.43;;;13.17;;
42066;SDS011;27734;47.028;28.820;2024-02-21T00:03:06;30.87;;;14.30;;
42066;SDS011;27734;47.028;28.820;2024-02-21T00:05:37;32.30;;;13.67;;
42066;SDS011;27734;47.028;28.820;2024-02-21T00:08:08;27.30;;;12.95;;
42066;SDS011;27734;47.028;28.820;2024-02-21T00:10:39;22.57;;;11.77;;
42066;SDS011;27734;47.028;28.820;2024-02-21T00:13:10;26.93;;;12.63;;
42066;SDS011;27734;47.028;28.820;2024-02-21T00:15:41;28.00;;;12.90;;
42066;SDS011;27734;47.028;28.820;2024-02-21T00:18:13;42.27;;;13.87;;
42066;SDS011;27734;47.028;28.820;2024-02-21T00:20:44;38.87;;;13.77;;
42066;SDS011;27734;47.028;28.820;2024-02-21T00:23:17;26.77;;;12.20;;
42066;SDS011;27734;47.028;28.820;2024-02-21T00:25:48;26.90;;;12.45;;
42066;SDS011;27734;47.028;28.820;2024-02-21T00:28:19;28.23;;;13.10;;
42066;SDS011;27734;47.028;28.820;2024-02-21T00:30:50;26.40;;;13.03;;
42066;SDS011;27734;47.028;28.820;2024-02-21T00:33:22;29.67;;;13.53;;
42066;SDS011;27734;47.028;28.820;2024-02-21T00:35:54;29.07;;;13.20;;
42066;SDS011;27734;47.028;28.820;2024-02-21T00:38:25;30.80;;;14.30;;
42066;SDS011;27734;47.028;28.820;2024-02-21T00:40:56;32.53;;;14.03;;
42066;SDS011;27734;47.028;28.820;2024-02-21T00:43:27;28.97;;;13.53;;
42066;SDS011;27734;47.028;28.820;2024-02-21T00:45:58;30.53;;;13.40;;
42066;SDS011;27734;47.028;28.820;2024-02-21T00:48:29;26.20;;;13.03;;
42066;SDS011;27734;47.028;28.820;2024-02-21T00:51:00;30.03;;;13.40;;
42066;SDS011;27734;47.028;28.820;2024-02-21T00:53:34;30.82;;;14.00;;
42066;SDS011;27734;47.028;28.820;2024-02-21T00:56:06;30.27;;;13.60;;
42066;SDS011;27734;47.028;28.820;2024-02-21T00:58:40;26.23;;;12.20;;
42066;SDS011;27734;47.028;28.820;2024-02-21T01:01:11;28.60;;;12.37;;
42066;SDS011;27734;47.028;28.820;2024-02-21T01:03:43;28.37;;;12.67;;
42066;SDS011;27734;47.028;28.820;2024-02-21T01:06:14;26.07;;;12.87;;
42066;SDS011;27734;47.028;28.820;2024-02-21T01:08:46;26.57;;;12.57;;
42066;SDS011;27734;47.028;28.820;2024-02-21T01:11:17;24.33;;;11.90;;
42066;SDS011;27734;47.028;28.820;2024-02-21T01:13:50;25.73;;;12.13;;
42066;SDS011;27734;47.028;28.820;2024-02-21T01:16:21;24.60;;;10.70;;
42066;SDS011;27734;47.028;28.820;2024-02-21T01:18:52;24.73;;;10.77;;
42066;SDS011;27734;47.028;28.820;2024-02-21T01:21:23;27.77;;;12.20;;
42066;SDS011;27734;47.028;28.820;2024-02-21T01:23:54;25.33;;;11.27;;
42066;SDS011;27734;47.028;28.820;2024-02-21T01:26:26;25.33;;;11.33;;
42066;SDS011;27734;47.028;28.820;2024-02-21T01:28:57;24.67;;;11.30;;
42066;SDS011;27734;47.028;28.820;2024-02-21T01:31:29;23.57;;;11.20;;
42066;SDS011;27734;47.028;28.820;2024-02-21T01:34:00;24.70;;;10.80;;
42066;SDS011;27734;47.028;28.820;2024-02-21T01:36:31;24.77;;;11.67;;
42066;SDS011;27734;47.028;28.820;2024-02-21T01:39:02;25.27;;;11.53;;
42066;SDS011;27734;47.028;28.820;2024-02-21T01:41:33;29.00;;;11.67;;
42066;SDS011;27734;47.028;28.820;2024-02-21T01:44:05;23.33;;;11.63;;
42066;SDS011;27734;47.028;28.820;2024-02-21T01:46:36;26.53;;;11.63;;
42066;SDS011;27734;47.028;28.820;2024-02-21T01:49:07;25.10;;;12.13;;
42066;SDS011;27734;47.028;28.820;2024-02-21T01:51:39;23.83;;;10.67;;
42066;SDS011;27734;47.028;28.820;2024-02-21T01:54:10;24.07;;;10.70;;
42066;SDS011;27734;47.028;28.820;2024-02-21T01:56:45;25.53;;;12.03;;
42066;SDS011;27734;47.028;28.820;2024-02-21T01:59:17;28.10;;;11.87;;
42066;SDS011;27734;47.028;28.820;2024-02-21T02:01:51;26.80;;;11.80;;
42066;SDS011;27734;47.028;28.820;2024-02-21T02:04:24;26.02;;;11.53;;
42066;SDS011;27734;47.028;28.820;2024-02-21T02:06:56;26.37;;;11.17;;
42066;SDS011;27734;47.028;28.820;2024-02-21T02:09:29;24.60;;;11.57;;
42066;SDS011;27734;47.028;28.820;2024-02-21T02:12:00;23.80;;;10.97;;
42066;SDS011;27734;47.028;28.820;2024-02-21T02:14:32;25.47;;;11.27;;
42066;SDS011;27734;47.028;28.820;2024-02-21T02:17:03;25.10;;;10.47;;
42066;SDS011;27734;47.028;28.820;2024-02-21T02:19:34;26.50;;;11.07;;
42066;SDS011;27734;47.028;28.820;2024-02-21T02:22:08;24.47;;;10.77;;
42066;SDS011;27734;47.028;28.820;2024-02-21T02:24:47;23.50;;;11.10;;
42066;SDS011;27734;47.028;28.820;2024-02-21T02:27:19;24.63;;;10.93;;
42066;SDS011;27734;47.028;28.820;2024-02-21T02:29:51;24.00;;;11.10;;
42066;SDS011;27734;47.028;28.820;2024-02-21T02:32:22;22.83;;;11.30;;
42066;SDS011;27734;47.028;28.820;2024-02-21T02:34:54;26.97;;;12.80;;
42066;SDS011;27734;47.028;28.820;2024-02-21T02:37:25;32.47;;;13.03;;
42066;SDS011;27734;47.028;28.820;2024-02-21T02:39:56;31.13;;;14.43;;
42066;SDS011;27734;47.028;28.820;2024-02-21T02:42:27;30.00;;;13.07;;
42066;SDS011;27734;47.028;28.820;2024-02-21T02:44:58;28.17;;;12.27;;
42066;SDS011;27734;47.028;28.820;2024-02-21T02:47:30;27.03;;;13.90;;
42066;SDS011;27734;47.028;28.820;2024-02-21T02:50:03;27.00;;;12.67;;
42066;SDS011;27734;47.028;28.820;2024-02-21T02:52:36;30.50;;;13.87;;
42066;SDS011;27734;47.028;28.820;2024-02-21T02:55:07;28.90;;;13.07;;
42066;SDS011;27734;47.028;28.820;2024-02-21T02:57:39;31.83;;;13.77;;
42066;SDS011;27734;47.028;28.820;2024-02-21T03:00:12;30.27;;;13.40;;
42066;SDS011;27734;47.028;28.820;2024-02-21T03:02:45;28.17;;;13.45;;
42066;SDS011;27734;47.028;28.820;2024-02-21T03:07:49;26.40;;;12.93;;
42066;SDS011;27734;47.028;28.820;2024-02-21T03:10:20;26.77;;;13.17;;
42066;SDS011;27734;47.028;28.820;2024-02-21T03:12:52;30.30;;;14.03;;
42066;SDS011;27734;47.028;28.820;2024-02-21T03:15:23;26.90;;;13.07;;
42066;SDS011;27734;47.028;28.820;2024-02-21T03:17:54;27.43;;;12.83;;
42066;SDS011;27734;47.028;28.820;2024-02-21T03:20:25;26.57;;;13.27;;
42066;SDS011;27734;47.028;28.820;2024-02-21T03:22:56;28.67;;;13.37;;
42066;SDS011;27734;47.028;28.820;2024-02-21T03:25:27;26.73;;;13.33;;
42066;SDS011;27734;47.028;28.820;2024-02-21T03:27:59;27.20;;;13.60;;
42066;SDS011;27734;47.028;28.820;2024-02-21T03:30:30;27.20;;;13.00;;
42066;SDS011;27734;47.028;28.820;2024-02-21T03:33:02;27.60;;;12.90;;
42066;SDS011;27734;47.028;28.820;2024-02-21T03:35:33;27.93;;;13.37;;
42066;SDS011;27734;47.028;28.820;2024-02-21T03:38:04;28.73;;;13.87;;
42066;SDS011;27734;47.028;28.820;2024-02-21T03:40:36;26.73;;;12.83;;
42066;SDS011;27734;47.028;28.820;2024-02-21T03:43:07;26.30;;;12.90;;
42066;SDS011;27734;47.028;28.820;2024-02-21T03:45:38;27.03;;;11.97;;
42066;SDS011;27734;47.028;28.820;2024-02-21T03:48:09;28.40;;;12.40;;
42066;SDS011;27734;47.028;28.820;2024-02-21T03:50:40;23.53;;;12.33;;
42066;SDS011;27734;47.028;28.820;2024-02-21T03:53:12;27.73;;;12.87;;
42066;SDS011;27734;47.028;28.820;2024-02-21T03:55:43;39.93;;;13.80;;
42066;SDS011;27734;47.028;28.820;2024-02-21T03:58:14;38.77;;;13.10;;
42066;SDS011;27734;47.028;28.820;2024-02-21T04:00:46;29.25;;;13.65;;
42066;SDS011;27734;47.028;28.820;2024-02-21T04:03:17;32.17;;;13.00;;
42066;SDS011;27734;47.028;28.820;2024-02-21T04:05:49;27.20;;;12.63;;
42066;SDS011;27734;47.028;28.820;2024-02-21T04:08:22;25.80;;;12.37;;
42066;SDS011;27734;47.028;28.820;2024-02-21T04:10:57;27.57;;;13.93;;
42066;SDS011;27734;47.028;28.820;2024-02-21T04:13:28;29.05;;;13.45;;
42066;SDS011;27734;47.028;28.820;2024-02-21T04:15:59;30.85;;;13.20;;
42066;SDS011;27734;47.028;28.820;2024-02-21T04:18:31;53.77;;;15.97;;
42066;SDS011;27734;47.028;28.820;2024-02-21T04:21:02;45.80;;;15.57;;
42066;SDS011;27734;47.028;28.820;2024-02-21T04:23:34;30.03;;;13.10;;
42066;SDS011;27734;47.028;28.820;2024-02-21T04:26:05;30.03;;;14.13;;
42066;SDS011;27734;47.028;28.820;2024-02-21T04:28:37;29.87;;;14.37;;
42066;SDS011;27734;47.028;28.820;2024-02-21T04:31:08;31.37;;;13.17;;
42066;SDS011;27734;47.028;28.820;2024-02-21T04:33:39;29.40;;;13.43;;
42066;SDS011;27734;47.028;28.820;2024-02-21T04:36:10;32.85;;;14.35;;
42066;SDS011;27734;47.028;28.820;2024-02-21T04:38:42;29.00;;;14.30;;
42066;SDS011;27734;47.028;28.820;2024-02-21T04:41:13;34.83;;;15.77;;
42066;SDS011;27734;47.028;28.820;2024-02-21T04:43:45;29.67;;;13.63;;
42066;SDS011;27734;47.028;28.820;2024-02-21T04:46:16;31.13;;;14.20;;
42066;SDS011;27734;47.028;28.820;2024-02-21T04:48:48;33.00;;;14.50;;
42066;SDS011;27734;47.028;28.820;2024-02-21T04:51:19;30.20;;;13.70;;
42066;SDS011;27734;47.028;28.820;2024-02-21T04:53:51;30.43;;;13.80;;
42066;SDS011;27734;47.028;28.820;2024-02-21T04:56:22;33.73;;;14.37;;
42066;SDS011;27734;47.028;28.820;2024-02-21T04:58:53;30.13;;;13.80;;
42066;SDS011;27734;47.028;28.820;2024-02-21T05:01:24;33.30;;;15.07;;
42066;SDS011;27734;47.028;28.820;2024-02-21T05:03:57;33.53;;;15.03;;
42066;SDS011;27734;47.028;28.820;2024-02-21T05:06:28;30.57;;;14.50;;
42066;SDS011;27734;47.028;28.820;2024-02-21T05:08:59;38.20;;;15.93;;
42066;SDS011;27734;47.028;28.820;2024-02-21T05:11:31;39.53;;;15.73;;
42066;SDS011;27734;47.028;28.820;2024-02-21T05:14:02;30.90;;;15.17;;
42066;SDS011;27734;47.028;28.820;2024-02-21T05:16:33;30.70;;;14.90;;
42066;SDS011;27734;47.028;28.820;2024-02-21T05:19:05;32.93;;;16.03;;
42066;SDS011;27734;47.028;28.820;2024-02-21T05:21:36;33.83;;;15.93;;
42066;SDS011;27734;47.028;28.820;2024-02-21T05:24:07;35.40;;;14.95;;
42066;SDS011;27734;47.028;28.820;2024-02-21T05:26:39;31.40;;;15.67;;
42066;SDS011;27734;47.028;28.820;2024-02-21T05:29:10;39.67;;;16.13;;
42066;SDS011;27734;47.028;28.820;2024-02-21T05:31:54;32.85;;;15.35;;
42066;SDS011;27734;47.028;28.820;2024-02-21T05:34:29;35.80;;;16.47;;
42066;SDS011;27734;47.028;28.820;2024-02-21T05:37:00;35.47;;;17.20;;
42066;SDS011;27734;47.028;28.820;2024-02-21T05:39:31;37.83;;;17.03;;
42066;SDS011;27734;47.028;28.820;2024-02-21T05:42:02;34.87;;;17.57;;
42066;SDS011;27734;47.028;28.820;2024-02-21T05:44:34;38.43;;;17.13;;
42066;SDS011;27734;47.028;28.820;2024-02-21T05:47:05;35.77;;;18.70;;
42066;SDS011;27734;47.028;28.820;2024-02-21T05:49:39;36.53;;;18.20;;
42066;SDS011;27734;47.028;28.820;2024-02-21T05:52:10;42.50;;;18.57;;
42066;SDS011;27734;47.028;28.820;2024-02-21T05:54:41;37.87;;;19.83;;
42066;SDS011;27734;47.028;28.820;2024-02-21T05:57:13;37.70;;;17.57;;
42066;SDS011;27734;47.028;28.820;2024-02-21T06:00:07;39.87;;;17.53;;
42066;SDS011;27734;47.028;28.820;2024-02-21T06:02:42;49.57;;;20.43;;
42066;SDS011;27734;47.028;28.820;2024-02-21T06:05:14;40.57;;;18.97;;
42066;SDS011;27734;47.028;28.820;2024-02-21T06:07:45;37.80;;;19.00;;
42066;SDS011;27734;47.028;28.820;2024-02-21T06:10:17;37.57;;;18.53;;
42066;SDS011;27734;47.028;28.820;2024-02-21T06:12:50;38.98;;;18.45;;
42066;SDS011;27734;47.028;28.820;2024-02-21T06:15:23;35.67;;;17.73;;
42066;SDS011;27734;47.028;28.820;2024-02-21T06:17:56;37.40;;;17.95;;
42066;SDS011;27734;47.028;28.820;2024-02-21T06:20:28;34.77;;;17.37;;
42066;SDS011;27734;47.028;28.820;2024-02-21T06:22:59;33.70;;;17.97;;
42066;SDS011;27734;47.028;28.820;2024-02-21T06:25:31;34.40;;;17.37;;
42066;SDS011;27734;47.028;28.820;2024-02-21T06:28:02;32.27;;;17.13;;
42066;SDS011;27734;47.028;28.820;2024-02-21T06:30:35;30.60;;;16.30;;
42066;SDS011;27734;47.028;28.820;2024-02-21T06:33:08;34.70;;;18.20;;
42066;SDS011;27734;47.028;28.820;2024-02-21T06:35:39;33.87;;;17.30;;
42066;SDS011;27734;47.028;28.820;2024-02-21T06:38:13;35.17;;;18.00;;
42066;SDS011;27734;47.028;28.820;2024-02-21T06:40:46;34.77;;;18.93;;
42066;SDS011;27734;47.028;28.820;2024-02-21T06:43:20;35.40;;;18.90;;
42066;SDS011;27734;47.028;28.820;2024-02-21T06:45:51;34.53;;;17.37;;
42066;SDS011;27734;47.028;28.820;2024-02-21T06:48:24;36.57;;;17.70;;
42066;SDS011;27734;47.028;28.820;2024-02-21T06:50:59;34.00;;;15.95;;
42066;SDS011;27734;47.028;28.820;2024-02-21T06:53:31;34.10;;;16.77;;
42066;SDS011;27734;47.028;28.820;2024-02-21T06:56:03;35.97;;;17.63;;
42066;SDS011;27734;47.028;28.820;2024-02-21T06:58:35;43.70;;;16.80;;
42066;SDS011;27734;47.028;28.820;2024-02-21T07:01:06;36.63;;;16.90;;
42066;SDS011;27734;47.028;28.820;2024-02-21T07:03:38;36.43;;;16.50;;
42066;SDS011;27734;47.028;28.820;2024-02-21T07:06:09;33.13;;;16.63;;
42066;SDS011;27734;47.028;28.820;2024-02-21T07:08:41;31.30;;;15.57;;
42066;SDS011;27734;47.028;28.820;2024-02-21T07:11:12;37.97;;;16.47;;
42066;SDS011;27734;47.028;28.820;2024-02-21T07:13:43;30.60;;;15.40;;
42066;SDS011;27734;47.028;28.820;2024-02-21T07:16:14;26.80;;;14.10;;
42066;SDS011;27734;47.028;28.820;2024-02-21T07:18:46;25.70;;;13.17;;
42066;SDS011;27734;47.028;28.820;2024-02-21T07:21:17;27.30;;;13.20;;
42066;SDS011;27734;47.028;28.820;2024-02-21T07:23:49;28.53;;;13.63;;
42066;SDS011;27734;47.028;28.820;2024-02-21T07:26:20;29.90;;;14.70;;
42066;SDS011;27734;47.028;28.820;2024-02-21T07:28:52;28.73;;;14.27;;
42066;SDS011;27734;47.028;28.820;2024-02-21T07:31:26;29.27;;;13.97;;
42066;SDS011;27734;47.028;28.820;2024-02-21T07:33:58;31.87;;;14.50;;
42066;SDS011;27734;47.028;28.820;2024-02-21T07:36:29;27.57;;;12.93;;
42066;SDS011;27734;47.028;28.820;2024-02-21T07:39:01;33.70;;;14.50;;
42066;SDS011;27734;47.028;28.820;2024-02-21T07:41:32;33.23;;;14.63;;
42066;SDS011;27734;47.028;28.820;2024-02-21T07:44:04;30.27;;;14.23;;
42066;SDS011;27734;47.028;28.820;2024-02-21T07:46:35;32.57;;;15.43;;
42066;SDS011;27734;47.028;28.820;2024-02-21T07:49:06;31.70;;;14.37;;
42066;SDS011;27734;47.028;28.820;2024-02-21T07:51:37;36.27;;;14.47;;
42066;SDS011;27734;47.028;28.820;2024-02-21T07:54:11;35.63;;;14.40;;
42066;SDS011;27734;47.028;28.820;2024-02-21T07:56:43;32.20;;;14.70;;
42066;SDS011;27734;47.028;28.820;2024-02-21T07:59:18;28.55;;;13.80;;
42066;SDS011;27734;47.028;28.820;2024-02-21T08:01:50;27.20;;;13.53;;
42066;SDS011;27734;47.028;28.820;2024-02-21T08:04:21;29.47;;;13.20;;
42066;SDS011;27734;47.028;28.820;2024-02-21T08:06:53;28.80;;;14.63;;
42066;SDS011;27734;47.028;28.820;2024-02-21T08:09:33;33.07;;;13.30;;
42066;SDS011;27734;47.028;28.820;2024-02-21T08:12:06;28.57;;;13.20;;
42066;SDS011;27734;47.028;28.820;2024-02-21T08:14:38;25.97;;;13.17;;
42066;SDS011;27734;47.028;28.820;2024-02-21T08:17:10;29.60;;;13.77;;
42066;SDS011;27734;47.028;28.820;2024-02-21T08:19:43;28.87;;;13.77;;
42066;SDS011;27734;47.028;28.820;2024-02-21T08:22:17;28.05;;;13.45;;
42066;SDS011;27734;47.028;28.820;2024-02-21T08:24:50;29.97;;;13.80;;
42066;SDS011;27734;47.028;28.820;2024-02-21T08:27:22;42.73;;;14.60;;
42066;SDS011;27734;47.028;28.820;2024-02-21T08:29:53;31.73;;;14.53;;
42066;SDS011;27734;47.028;28.820;2024-02-21T08:32:25;30.33;;;13.63;;
42066;SDS011;27734;47.028;28.820;2024-02-21T08:34:58;26.87;;;13.03;;
42066;SDS011;27734;47.028;28.820;2024-02-21T08:37:30;27.97;;;12.93;;
42066;SDS011;27734;47.028;28.820;2024-02-21T08:40:05;26.82;;;13.40;;
42066;SDS011;27734;47.028;28.820;2024-02-21T08:42:38;26.67;;;13.87;;
42066;SDS011;27734;47.028;28.820;2024-02-21T08:45:10;26.90;;;14.10;;
42066;SDS011;27734;47.028;28.820;2024-02-21T08:47:42;26.03;;;13.53;;
42066;SDS011;27734;47.028;28.820;2024-02-21T08:50:18;27.63;;;13.33;;
42066;SDS011;27734;47.028;28.820;2024-02-21T08:52:52;27.50;;;12.97;;
42066;SDS011;27734;47.028;28.820;2024-02-21T08:55:25;25.57;;;12.90;;
42066;SDS011;27734;47.028;28.820;2024-02-21T08:57:56;27.27;;;13.57;;
42066;SDS011;27734;47.028;28.820;2024-02-21T09:00:28;25.10;;;12.97;;
42066;SDS011;27734;47.028;28.820;2024-02-21T09:03:03;27.53;;;13.70;;
42066;SDS011;27734;47.028;28.820;2024-02-21T09:05:37;25.93;;;12.40;;
42066;SDS011;27734;47.028;28.820;2024-02-21T09:08:10;23.60;;;12.83;;
42066;SDS011;27734;47.028;28.820;2024-02-21T09:10:41;25.20;;;12.70;;
42066;SDS011;27734;47.028;28.820;2024-02-21T09:13:14;28.17;;;13.37;;
42066;SDS011;27734;47.028;28.820;2024-02-21T09:15:46;24.27;;;12.57;;
42066;SDS011;27734;47.028;28.820;2024-02-21T09:18:20;25.73;;;13.50;;
42066;SDS011;27734;47.028;28.820;2024-02-21T09:23:26;31.83;;;14.67;;
42066;SDS011;27734;47.028;28.820;2024-02-21T09:26:06;31.80;;;14.55;;
42066;SDS011;27734;47.028;28.820;2024-02-21T09:28:43;26.20;;;12.83;;
42066;SDS011;27734;47.028;28.820;2024-02-21T09:31:21;26.83;;;13.80;;
42066;SDS011;27734;47.028;28.820;2024-02-21T09:33:54;27.43;;;13.93;;
42066;SDS011;27734;47.028;28.820;2024-02-21T09:36:26;26.27;;;14.03;;
42066;SDS011;27734;47.028;28.820;2024-02-21T09:38:58;26.20;;;13.63;;
42066;SDS011;27734;47.028;28.820;2024-02-21T09:41:29;29.40;;;14.10;;
42066;SDS011;27734;47.028;28.820;2024-02-21T09:44:05;27.90;;;13.40;;
42066;SDS011;27734;47.028;28.820;2024-02-21T09:46:42;29.00;;;13.43;;
42066;SDS011;27734;47.028;28.820;2024-02-21T09:49:24;25.87;;;13.43;;
42066;SDS011;27734;47.028;28.820;2024-02-21T09:52:02;29.00;;;13.67;;
42066;SDS011;27734;47.028;28.820;2024-02-21T09:54:38;28.87;;;13.57;;
42066;SDS011;27734;47.028;28.820;2024-02-21T09:57:12;24.57;;;12.90;;
42066;SDS011;27734;47.028;28.820;2024-02-21T09:59:44;28.00;;;13.10;;
42066;SDS011;27734;47.028;28.820;2024-02-21T10:02:16;28.67;;;13.40;;
42066;SDS011;27734;47.028;28.820;2024-02-21T10:04:48;26.47;;;12.83;;
42066;SDS011;27734;47.028;28.820;2024-02-21T10:07:19;24.03;;;12.57;;
42066;SDS011;27734;47.028;28.820;2024-02-21T10:10:01;26.80;;;13.33;;
42066;SDS011;27734;47.028;28.820;2024-02-21T10:12:33;28.20;;;14.27;;
42066;SDS011;27734;47.028;28.820;2024-02-21T10:15:21;28.33;;;14.37;;
42066;SDS011;27734;47.028;28.820;2024-02-21T10:17:59;25.70;;;12.87;;
42066;SDS011;27734;47.028;28.820;2024-02-21T10:20:31;25.70;;;13.60;;
42066;SDS011;27734;47.028;28.820;2024-02-21T10:23:04;25.73;;;13.23;;
42066;SDS011;27734;47.028;28.820;2024-02-21T10:25:38;27.13;;;13.40;;
42066;SDS011;27734;47.028;28.820;2024-02-21T10:28:13;26.60;;;13.10;;
42066;SDS011;27734;47.028;28.820;2024-02-21T10:30:53;29.70;;;14.20;;
42066;SDS011;27734;47.028;28.820;2024-02-21T10:33:24;25.40;;;12.67;;
42066;SDS011;27734;47.028;28.820;2024-02-21T10:36:05;35.53;;;13.50;;
42066;SDS011;27734;47.028;28.820;2024-02-21T10:38:38;25.17;;;13.37;;
42066;SDS011;27734;47.028;28.820;2024-02-21T10:41:09;24.93;;;13.53;;
42066;SDS011;27734;47.028;28.820;2024-02-21T10:43:43;27.20;;;13.37;;
42066;SDS011;27734;47.028;28.820;2024-02-21T10:46:21;23.67;;;12.43;;
42066;SDS011;27734;47.028;28.820;2024-02-21T10:48:59;25.20;;;13.10;;
42066;SDS011;27734;47.028;28.820;2024-02-21T10:51:37;26.33;;;13.80;;
42066;SDS011;27734;47.028;28.820;2024-02-21T10:54:19;27.90;;;14.03;;
42066;SDS011;27734;47.028;28.820;2024-02-21T10:57:08;27.23;;;13.13;;
42066;SDS011;27734;47.028;28.820;2024-02-21T10:59:40;29.03;;;14.80;;
42066;SDS011;27734;47.028;28.820;2024-02-21T11:02:17;27.20;;;14.30;;
42066;SDS011;27734;47.028;28.820;2024-02-21T11:05:01;28.63;;;15.40;;
42066;SDS011;27734;47.028;28.820;2024-02-21T11:07:35;27.48;;;14.75;;
42066;SDS011;27734;47.028;28.820;2024-02-21T11:10:19;27.27;;;14.85;;
42066;SDS011;27734;47.028;28.820;2024-02-21T11:13:04;30.10;;;15.57;;
42066;SDS011;27734;47.028;28.820;2024-02-21T11:15:39;30.47;;;16.07;;
42066;SDS011;27734;47.028;28.820;2024-02-21T11:18:11;29.05;;;15.23;;
42066;SDS011;27734;47.028;28.820;2024-02-21T11:20:52;27.73;;;15.40;;
42066;SDS011;27734;47.028;28.820;2024-02-21T11:23:27;26.87;;;15.37;;
42066;SDS011;27734;47.028;28.820;2024-02-21T11:26:08;30.37;;;15.90;;
42066;SDS011;27734;47.028;28.820;2024-02-21T11:28:58;28.00;;;15.77;;
42066;SDS011;27734;47.028;28.820;2024-02-21T11:31:40;29.67;;;16.70;;
42066;SDS011;27734;47.028;28.820;2024-02-21T11:34:17;29.85;;;15.60;;
42066;SDS011;27734;47.028;28.820;2024-02-21T11:39:20;26.40;;;14.87;;
42066;SDS011;27734;47.028;28.820;2024-02-21T11:42:03;26.15;;;14.93;;
42066;SDS011;27734;47.028;28.820;2024-02-21T11:44:36;26.60;;;13.87;;
42066;SDS011;27734;47.028;28.820;2024-02-21T11:47:11;25.70;;;14.97;;
42066;SDS011;27734;47.028;28.820;2024-02-21T11:49:47;31.27;;;15.47;;
42066;SDS011;27734;47.028;28.820;2024-02-21T11:52:22;30.53;;;15.53;;
42066;SDS011;27734;47.028;28.820;2024-02-21T11:54:55;35.80;;;16.35;;
42066;SDS011;27734;47.028;28.820;2024-02-21T11:57:33;28.10;;;16.07;;
42066;SDS011;27734;47.028;28.820;2024-02-21T12:00:15;28.53;;;16.23;;
42066;SDS011;27734;47.028;28.820;2024-02-21T12:02:49;31.33;;;16.97;;
42066;SDS011;27734;47.028;28.820;2024-02-21T12:05:21;31.43;;;15.80;;
42066;SDS011;27734;47.028;28.820;2024-02-21T12:07:55;30.70;;;16.63;;
42066;SDS011;27734;47.028;28.820;2024-02-21T12:10:28;31.20;;;16.33;;
42066;SDS011;27734;47.028;28.820;2024-02-21T12:13:06;31.27;;;16.57;;
42066;SDS011;27734;47.028;28.820;2024-02-21T12:15:39;31.00;;;16.20;;
42066;SDS011;27734;47.028;28.820;2024-02-21T12:18:11;28.05;;;15.45;;
42066;SDS011;27734;47.028;28.820;2024-02-21T12:20:47;30.07;;;16.70;;
42066;SDS011;27734;47.028;28.820;2024-02-21T12:23:19;28.67;;;15.47;;
42066;SDS011;27734;47.028;28.820;2024-02-21T12:25:53;28.20;;;15.93;;
42066;SDS011;27734;47.028;28.820;2024-02-21T12:28:24;29.70;;;16.70;;
42066;SDS011;27734;47.028;28.820;2024-02-21T12:30:57;30.03;;;15.80;;
42066;SDS011;27734;47.028;28.820;2024-02-21T12:33:30;27.37;;;15.70;;
42066;SDS011;27734;47.028;28.820;2024-02-21T12:36:01;28.47;;;15.90;;
42066;SDS011;27734;47.028;28.820;2024-02-21T12:38:35;28.87;;;16.20;;
42066;SDS011;27734;47.028;28.820;2024-02-21T12:41:12;27.37;;;16.03;;
42066;SDS011;27734;47.028;28.820;2024-02-21T12:43:46;29.67;;;16.17;;
42066;SDS011;27734;47.028;28.820;2024-02-21T12:46:23;30.43;;;15.73;;
42066;SDS011;27734;47.028;28.820;2024-02-21T12:48:55;37.03;;;15.33;;
42066;SDS011;27734;47.028;28.820;2024-02-21T12:51:27;34.40;;;16.90;;
42066;SDS011;27734;47.028;28.820;2024-02-21T12:54:05;29.77;;;16.73;;
42066;SDS011;27734;47.028;28.820;2024-02-21T12:56:49;32.93;;;16.60;;
42066;SDS011;27734;47.028;28.820;2024-02-21T12:59:31;32.00;;;16.17;;
42066;SDS011;27734;47.028;28.820;2024-02-21T13:02:02;29.17;;;15.67;;
42066;SDS011;27734;47.028;28.820;2024-02-21T13:04:37;28.00;;;15.00;;
42066;SDS011;27734;47.028;28.820;2024-02-21T13:07:09;29.00;;;16.53;;
42066;SDS011;27734;47.028;28.820;2024-02-21T13:09:41;29.60;;;16.10;;
42066;SDS011;27734;47.028;28.820;2024-02-21T13:12:12;30.85;;;14.75;;
42066;SDS011;27734;47.028;28.820;2024-02-21T13:14:44;28.97;;;15.33;;
42066;SDS011;27734;47.028;28.820;2024-02-21T13:17:23;30.63;;;15.77;;
42066;SDS011;27734;47.028;28.820;2024-02-21T13:19:58;29.63;;;15.97;;
42066;SDS011;27734;47.028;28.820;2024-02-21T13:22:29;26.37;;;15.57;;
42066;SDS011;27734;47.028;28.820;2024-02-21T13:25:01;27.50;;;14.90;;
42066;SDS011;27734;47.028;28.820;2024-02-21T13:27:33;29.30;;;15.60;;
42066;SDS011;27734;47.028;28.820;2024-02-21T13:30:04;29.77;;;14.93;;
42066;SDS011;27734;47.028;28.820;2024-02-21T13:32:38;28.67;;;14.80;;
42066;SDS011;27734;47.028;28.820;2024-02-21T13:35:10;27.33;;;14.37;;
42066;SDS011;27734;47.028;28.820;2024-02-21T13:37:41;27.30;;;14.27;;
42066;SDS011;27734;47.028;28.820;2024-02-21T13:40:15;28.70;;;14.67;;
42066;SDS011;27734;47.028;28.820;2024-02-21T13:42:47;28.03;;;14.20;;
42066;SDS011;27734;47.028;28.820;2024-02-21T13:45:22;25.70;;;14.80;;
42066;SDS011;27734;47.028;28.820;2024-02-21T13:47:53;26.60;;;14.17;;
42066;SDS011;27734;47.028;28.820;2024-02-21T13:50:29;26.57;;;14.13;;
42066;SDS011;27734;47.028;28.820;2024-02-21T13:55:40;24.77;;;14.07;;
42066;SDS011;27734;47.028;28.820;2024-02-21T13:58:11;26.70;;;14.20;;
42066;SDS011;27734;47.028;28.820;2024-02-21T14:00:43;27.30;;;15.10;;
42066;SDS011;27734;47.028;28.820;2024-02-21T14:03:15;25.43;;;13.80;;
42066;SDS011;27734;47.028;28.820;2024-02-21T14:05:49;24.83;;;13.70;;
42066;SDS011;27734;47.028;28.820;2024-02-21T14:08:20;26.33;;;13.53;;
42066;SDS011;27734;47.028;28.820;2024-02-21T14:10:52;26.03;;;13.27;;
42066;SDS011;27734;47.028;28.820;2024-02-21T14:13:23;24.93;;;13.70;;
42066;SDS011;27734;47.028;28.820;2024-02-21T14:15:55;28.25;;;14.15;;
42066;SDS011;27734;47.028;28.820;2024-02-21T14:18:26;30.83;;;15.17;;
42066;SDS011;27734;47.028;28.820;2024-02-21T14:20:57;28.17;;;14.23;;
42066;SDS011;27734;47.028;28.820;2024-02-21T14:23:28;27.17;;;14.87;;
42066;SDS011;27734;47.028;28.820;2024-02-21T14:26:01;27.17;;;14.40;;
42066;SDS011;27734;47.028;28.820;2024-02-21T14:28:33;28.57;;;16.00;;
42066;SDS011;27734;47.028;28.820;2024-02-21T14:31:04;25.67;;;14.20;;
42066;SDS011;27734;47.028;28.820;2024-02-21T14:33:37;26.60;;;14.30;;
42066;SDS011;27734;47.028;28.820;2024-02-21T14:36:09;27.27;;;14.20;;
42066;SDS011;27734;47.028;28.820;2024-02-21T14:38:41;29.73;;;15.10;;
42066;SDS011;27734;47.028;28.820;2024-02-21T14:41:13;31.97;;;15.63;;
42066;SDS011;27734;47.028;28.820;2024-02-21T14:43:44;29.10;;;15.50;;
42066;SDS011;27734;47.028;28.820;2024-02-21T14:46:15;28.03;;;14.83;;
42066;SDS011;27734;47.028;28.820;2024-02-21T14:48:47;27.90;;;14.77;;
42066;SDS011;27734;47.028;28.820;2024-02-21T14:51:19;30.77;;;15.87;;